sensor_id;sensor_type;location;lat;lon;timestamp;P1;durP1;ratioP1;P2;durP2;ratioP2
14143;SDS011;7152;48.348;10.980;2023-07-13T00:00:34;12.60;;;10.47;;
14143;SDS011;7152;48.348;10.980;2023-07-13T00:03:01;11.17;;;10.03;;
14143;SDS011;7152;48.348;10.980;2023-07-13T00:05:28;12.10;;;9.77;;
14143;SDS011;7152;48.348;10.980;2023-07-13T00:07:54;14.10;;;10.73;;
14143;SDS011;7152;48.348;10.980;2023-07-13T00:10:21;12.87;;;10.07;;
14143;SDS011;7152;48.348;10.980;2023-07-13T00:12:47;11.50;;;10.03;;
14143;SDS011;7152;48.348;10.980;2023-07-13T00:15:14;12.93;;;9.40;;
14143;SDS011;7152;48.348;10.980;2023-07-13T00:17:46;10.83;;;9.43;;
14143;SDS011;7152;48.348;10.980;2023-07-13T00:20:12;12.80;;;9.67;;
14143;SDS011;7152;48.348;10.980;2023-07-13T00:22:38;13.83;;;9.87;;
14143;SDS011;7152;48.348;10.980;2023-07-13T00:25:04;12.13;;;9.33;;
14143;SDS011;7152;48.348;10.980;2023-07-13T00:27:30;11.27;;;9.77;;
14143;SDS011;7152;48.348;10.980;2023-07-13T00:29:57;13.63;;;9.70;;
14143;SDS011;7152;48.348;10.980;2023-07-13T00:32:24;15.50;;;9.77;;
14143;SDS011;7152;48.348;10.980;2023-07-13T00:34:54;11.03;;;9.17;;
14143;SDS011;7152;48.348;10.980;2023-07-13T00:37:20;10.60;;;9.50;;
14143;SDS011;7152;48.348;10.980;2023-07-13T00:39:45;10.27;;;8.83;;
14143;SDS011;7152;48.348;10.980;2023-07-13T00:42:11;16.40;;;10.27;;
14143;SDS011;7152;48.348;10.980;2023-07-13T00:44:38;11.03;;;9.83;;
14143;SDS011;7152;48.348;10.980;2023-07-13T00:47:05;11.53;;;9.13;;
14143;SDS011;7152;48.348;10.980;2023-07-13T00:49:31;13.13;;;9.57;;
14143;SDS011;7152;48.348;10.980;2023-07-13T00:52:03;13.83;;;9.17;;
14143;SDS011;7152;48.348;10.980;2023-07-13T00:54:39;13.23;;;10.17;;
14143;SDS011;7152;48.348;10.980;2023-07-13T00:57:11;14.87;;;10.03;;
14143;SDS011;7152;48.348;10.980;2023-07-13T00:59:47;15.47;;;9.80;;
14143;SDS011;7152;48.348;10.980;2023-07-13T01:02:15;18.00;;;10.50;;
14143;SDS011;7152;48.348;10.980;2023-07-13T01:04:41;15.70;;;10.53;;
14143;SDS011;7152;48.348;10.980;2023-07-13T01:07:10;12.30;;;9.97;;
14143;SDS011;7152;48.348;10.980;2023-07-13T01:09:37;13.23;;;10.00;;
14143;SDS011;7152;48.348;10.980;2023-07-13T01:12:03;11.60;;;10.40;;
14143;SDS011;7152;48.348;10.980;2023-07-13T01:14:29;14.83;;;9.47;;
14143;SDS011;7152;48.348;10.980;2023-07-13T01:16:56;14.17;;;10.57;;
14143;SDS011;7152;48.348;10.980;2023-07-13T01:19:44;14.20;;;10.07;;
14143;SDS011;7152;48.348;10.980;2023-07-13T01:22:11;11.47;;;9.93;;
14143;SDS011;7152;48.348;10.980;2023-07-13T01:24:41;10.87;;;9.77;;
14143;SDS011;7152;48.348;10.980;2023-07-13T01:27:10;12.03;;;10.10;;
14143;SDS011;7152;48.348;10.980;2023-07-13T01:29:39;13.60;;;10.27;;
14143;SDS011;7152;48.348;10.980;2023-07-13T01:32:18;11.83;;;10.27;;
14143;SDS011;7152;48.348;10.980;2023-07-13T01:34:46;13.77;;;11.00;;
14143;SDS011;7152;48.348;10.980;2023-07-13T01:37:12;12.50;;;10.60;;
14143;SDS011;7152;48.348;10.980;2023-07-13T01:39:38;14.03;;;11.03;;
14143;SDS011;7152;48.348;10.980;2023-07-13T01:42:04;12.03;;;10.73;;
14143;SDS011;7152;48.348;10.980;2023-07-13T01:44:30;15.50;;;10.60;;
14143;SDS011;7152;48.348;10.980;2023-07-13T01:46:56;11.43;;;10.23;;
14143;SDS011;7152;48.348;10.980;2023-07-13T01:49:22;13.53;;;11.13;;
14143;SDS011;7152;48.348;10.980;2023-07-13T01:51:48;13.30;;;11.27;;
14143;SDS011;7152;48.348;10.980;2023-07-13T01:54:14;12.30;;;10.30;;
14143;SDS011;7152;48.348;10.980;2023-07-13T01:56:40;12.93;;;10.13;;
14143;SDS011;7152;48.348;10.980;2023-07-13T01:59:07;12.17;;;9.80;;
14143;SDS011;7152;48.348;10.980;2023-07-13T02:01:33;12.57;;;10.73;;
14143;SDS011;7152;48.348;10.980;2023-07-13T02:03:59;14.13;;;10.67;;
14143;SDS011;7152;48.348;10.980;2023-07-13T02:06:27;17.43;;;11.07;;
14143;SDS011;7152;48.348;10.980;2023-07-13T02:08:53;12.30;;;10.23;;
14143;SDS011;7152;48.348;10.980;2023-07-13T02:11:19;15.77;;;10.03;;
14143;SDS011;7152;48.348;10.980;2023-07-13T02:13:45;14.40;;;10.43;;
14143;SDS011;7152;48.348;10.980;2023-07-13T02:16:11;13.23;;;10.70;;
14143;SDS011;7152;48.348;10.980;2023-07-13T02:18:37;14.73;;;10.10;;
14143;SDS011;7152;48.348;10.980;2023-07-13T02:21:03;12.73;;;11.17;;
14143;SDS011;7152;48.348;10.980;2023-07-13T02:23:29;14.07;;;11.17;;
14143;SDS011;7152;48.348;10.980;2023-07-13T02:25:56;13.60;;;10.77;;
14143;SDS011;7152;48.348;10.980;2023-07-13T02:28:22;15.30;;;11.43;;
14143;SDS011;7152;48.348;10.980;2023-07-13T02:30:48;18.60;;;11.93;;
14143;SDS011;7152;48.348;10.980;2023-07-13T02:33:14;14.33;;;11.23;;
14143;SDS011;7152;48.348;10.980;2023-07-13T02:35:40;13.67;;;12.20;;
14143;SDS011;7152;48.348;10.980;2023-07-13T02:38:06;17.33;;;11.60;;
14143;SDS011;7152;48.348;10.980;2023-07-13T02:40:34;15.23;;;10.87;;
14143;SDS011;7152;48.348;10.980;2023-07-13T02:43:01;17.13;;;11.90;;
14143;SDS011;7152;48.348;10.980;2023-07-13T02:45:30;17.20;;;12.00;;
14143;SDS011;7152;48.348;10.980;2023-07-13T02:47:56;14.57;;;10.70;;
14143;SDS011;7152;48.348;10.980;2023-07-13T02:50:22;15.43;;;11.73;;
14143;SDS011;7152;48.348;10.980;2023-07-13T02:52:47;19.00;;;11.10;;
14143;SDS011;7152;48.348;10.980;2023-07-13T02:55:13;14.50;;;11.77;;
14143;SDS011;7152;48.348;10.980;2023-07-13T02:57:39;15.47;;;11.23;;
14143;SDS011;7152;48.348;10.980;2023-07-13T03:00:06;13.60;;;11.40;;
14143;SDS011;7152;48.348;10.980;2023-07-13T03:02:33;14.37;;;11.17;;
14143;SDS011;7152;48.348;10.980;2023-07-13T03:05:00;15.83;;;10.83;;
14143;SDS011;7152;48.348;10.980;2023-07-13T03:07:27;15.70;;;10.87;;
14143;SDS011;7152;48.348;10.980;2023-07-13T03:09:56;18.47;;;10.73;;
14143;SDS011;7152;48.348;10.980;2023-07-13T03:12:24;15.23;;;10.70;;
14143;SDS011;7152;48.348;10.980;2023-07-13T03:14:51;14.70;;;10.97;;
14143;SDS011;7152;48.348;10.980;2023-07-13T03:17:17;14.13;;;10.87;;
14143;SDS011;7152;48.348;10.980;2023-07-13T03:19:43;12.97;;;10.57;;
14143;SDS011;7152;48.348;10.980;2023-07-13T03:22:10;13.07;;;10.43;;
14143;SDS011;7152;48.348;10.980;2023-07-13T03:24:37;15.50;;;11.07;;
14143;SDS011;7152;48.348;10.980;2023-07-13T03:27:04;11.87;;;10.53;;
14143;SDS011;7152;48.348;10.980;2023-07-13T03:29:33;14.20;;;10.87;;
14143;SDS011;7152;48.348;10.980;2023-07-13T03:31:59;14.23;;;10.93;;
14143;SDS011;7152;48.348;10.980;2023-07-13T03:34:25;12.33;;;10.00;;
14143;SDS011;7152;48.348;10.980;2023-07-13T03:36:53;13.83;;;9.20;;
14143;SDS011;7152;48.348;10.980;2023-07-13T03:39:20;11.37;;;9.03;;
14143;SDS011;7152;48.348;10.980;2023-07-13T03:41:48;12.47;;;10.13;;
14143;SDS011;7152;48.348;10.980;2023-07-13T03:44:18;10.73;;;8.67;;
14143;SDS011;7152;48.348;10.980;2023-07-13T03:46:48;12.67;;;9.10;;
14143;SDS011;7152;48.348;10.980;2023-07-13T03:49:14;12.33;;;9.33;;
14143;SDS011;7152;48.348;10.980;2023-07-13T03:51:40;11.37;;;9.20;;
14143;SDS011;7152;48.348;10.980;2023-07-13T03:54:06;11.03;;;9.03;;
14143;SDS011;7152;48.348;10.980;2023-07-13T03:56:31;9.50;;;8.57;;
14143;SDS011;7152;48.348;10.980;2023-07-13T03:59:00;12.80;;;9.03;;
14143;SDS011;7152;48.348;10.980;2023-07-13T04:01:26;9.40;;;8.40;;
14143;SDS011;7152;48.348;10.980;2023-07-13T04:03:52;10.00;;;8.13;;
14143;SDS011;7152;48.348;10.980;2023-07-13T04:06:23;10.70;;;8.20;;
14143;SDS011;7152;48.348;10.980;2023-07-13T04:08:52;11.13;;;8.30;;
14143;SDS011;7152;48.348;10.980;2023-07-13T04:11:20;8.37;;;6.93;;
14143;SDS011;7152;48.348;10.980;2023-07-13T04:13:48;9.23;;;7.93;;
14143;SDS011;7152;48.348;10.980;2023-07-13T04:16:15;8.80;;;6.70;;
14143;SDS011;7152;48.348;10.980;2023-07-13T04:18:43;8.17;;;7.30;;
14143;SDS011;7152;48.348;10.980;2023-07-13T04:21:10;7.93;;;6.93;;
14143;SDS011;7152;48.348;10.980;2023-07-13T04:23:36;10.30;;;7.37;;
14143;SDS011;7152;48.348;10.980;2023-07-13T04:26:03;8.40;;;6.47;;
14143;SDS011;7152;48.348;10.980;2023-07-13T04:28:29;10.53;;;6.37;;
14143;SDS011;7152;48.348;10.980;2023-07-13T04:30:55;8.50;;;6.50;;
14143;SDS011;7152;48.348;10.980;2023-07-13T04:33:21;6.80;;;5.83;;
14143;SDS011;7152;48.348;10.980;2023-07-13T04:35:48;8.80;;;6.43;;
14143;SDS011;7152;48.348;10.980;2023-07-13T04:38:19;6.90;;;5.83;;
14143;SDS011;7152;48.348;10.980;2023-07-13T04:40:47;7.67;;;6.30;;
14143;SDS011;7152;48.348;10.980;2023-07-13T04:43:13;10.40;;;6.23;;
14143;SDS011;7152;48.348;10.980;2023-07-13T04:45:39;8.93;;;5.60;;
14143;SDS011;7152;48.348;10.980;2023-07-13T04:48:06;10.10;;;6.13;;
14143;SDS011;7152;48.348;10.980;2023-07-13T04:50:32;5.93;;;4.90;;
14143;SDS011;7152;48.348;10.980;2023-07-13T04:52:57;6.50;;;5.40;;
14143;SDS011;7152;48.348;10.980;2023-07-13T04:55:24;6.87;;;5.30;;
14143;SDS011;7152;48.348;10.980;2023-07-13T04:57:50;5.57;;;5.07;;
14143;SDS011;7152;48.348;10.980;2023-07-13T05:00:16;5.17;;;4.57;;
14143;SDS011;7152;48.348;10.980;2023-07-13T05:02:45;6.87;;;4.73;;
14143;SDS011;7152;48.348;10.980;2023-07-13T05:05:11;5.40;;;4.90;;
14143;SDS011;7152;48.348;10.980;2023-07-13T05:07:37;6.60;;;5.13;;
14143;SDS011;7152;48.348;10.980;2023-07-13T05:10:03;6.07;;;5.03;;
14143;SDS011;7152;48.348;10.980;2023-07-13T05:12:30;5.03;;;4.27;;
14143;SDS011;7152;48.348;10.980;2023-07-13T05:14:56;8.30;;;4.80;;
14143;SDS011;7152;48.348;10.980;2023-07-13T05:17:22;7.37;;;5.10;;
14143;SDS011;7152;48.348;10.980;2023-07-13T05:19:47;5.90;;;4.50;;
14143;SDS011;7152;48.348;10.980;2023-07-13T05:22:13;6.07;;;4.03;;
14143;SDS011;7152;48.348;10.980;2023-07-13T05:24:39;5.73;;;4.30;;
14143;SDS011;7152;48.348;10.980;2023-07-13T05:27:05;6.23;;;4.20;;
14143;SDS011;7152;48.348;10.980;2023-07-13T05:29:31;4.40;;;3.63;;
14143;SDS011;7152;48.348;10.980;2023-07-13T05:31:57;5.07;;;4.20;;
14143;SDS011;7152;48.348;10.980;2023-07-13T05:34:23;8.03;;;4.50;;
14143;SDS011;7152;48.348;10.980;2023-07-13T05:36:49;7.23;;;3.70;;
14143;SDS011;7152;48.348;10.980;2023-07-13T05:39:16;5.67;;;3.60;;
14143;SDS011;7152;48.348;10.980;2023-07-13T05:41:42;5.60;;;3.70;;
14143;SDS011;7152;48.348;10.980;2023-07-13T05:44:07;6.73;;;4.13;;
14143;SDS011;7152;48.348;10.980;2023-07-13T05:46:33;7.33;;;3.83;;
14143;SDS011;7152;48.348;10.980;2023-07-13T05:48:59;5.73;;;3.73;;
14143;SDS011;7152;48.348;10.980;2023-07-13T05:51:25;5.47;;;3.50;;
14143;SDS011;7152;48.348;10.980;2023-07-13T05:53:51;5.13;;;3.50;;
14143;SDS011;7152;48.348;10.980;2023-07-13T05:56:17;5.70;;;3.67;;
14143;SDS011;7152;48.348;10.980;2023-07-13T05:58:43;3.43;;;3.13;;
14143;SDS011;7152;48.348;10.980;2023-07-13T06:01:13;4.97;;;3.57;;
14143;SDS011;7152;48.348;10.980;2023-07-13T06:03:40;4.47;;;3.17;;
14143;SDS011;7152;48.348;10.980;2023-07-13T06:06:06;4.93;;;3.33;;
14143;SDS011;7152;48.348;10.980;2023-07-13T06:08:34;5.23;;;3.20;;
14143;SDS011;7152;48.348;10.980;2023-07-13T06:11:03;4.53;;;3.47;;
14143;SDS011;7152;48.348;10.980;2023-07-13T06:13:31;3.37;;;3.07;;
14143;SDS011;7152;48.348;10.980;2023-07-13T06:16:05;4.27;;;2.90;;
14143;SDS011;7152;48.348;10.980;2023-07-13T06:18:32;6.20;;;2.83;;
14143;SDS011;7152;48.348;10.980;2023-07-13T06:20:59;3.43;;;3.10;;
14143;SDS011;7152;48.348;10.980;2023-07-13T06:23:25;5.23;;;3.47;;
14143;SDS011;7152;48.348;10.980;2023-07-13T06:25:51;4.77;;;2.80;;
14143;SDS011;7152;48.348;10.980;2023-07-13T06:28:17;4.77;;;2.77;;
14143;SDS011;7152;48.348;10.980;2023-07-13T06:30:43;3.87;;;2.67;;
14143;SDS011;7152;48.348;10.980;2023-07-13T06:33:08;3.37;;;2.60;;
14143;SDS011;7152;48.348;10.980;2023-07-13T06:35:34;3.37;;;3.00;;
14143;SDS011;7152;48.348;10.980;2023-07-13T06:38:00;2.97;;;2.67;;
14143;SDS011;7152;48.348;10.980;2023-07-13T06:40:27;4.10;;;2.80;;
14143;SDS011;7152;48.348;10.980;2023-07-13T06:42:54;3.63;;;2.73;;
14143;SDS011;7152;48.348;10.980;2023-07-13T06:45:20;4.43;;;2.63;;
14143;SDS011;7152;48.348;10.980;2023-07-13T06:47:46;4.13;;;2.70;;
14143;SDS011;7152;48.348;10.980;2023-07-13T06:50:11;4.63;;;2.57;;
14143;SDS011;7152;48.348;10.980;2023-07-13T06:52:37;4.13;;;2.37;;
14143;SDS011;7152;48.348;10.980;2023-07-13T06:55:03;3.77;;;3.07;;
14143;SDS011;7152;48.348;10.980;2023-07-13T06:57:29;3.73;;;2.60;;
14143;SDS011;7152;48.348;10.980;2023-07-13T06:59:55;3.27;;;2.50;;
14143;SDS011;7152;48.348;10.980;2023-07-13T07:02:21;3.80;;;2.60;;
14143;SDS011;7152;48.348;10.980;2023-07-13T07:04:47;5.77;;;2.70;;
14143;SDS011;7152;48.348;10.980;2023-07-13T07:07:12;5.53;;;2.90;;
14143;SDS011;7152;48.348;10.980;2023-07-13T07:09:38;3.20;;;2.73;;
14143;SDS011;7152;48.348;10.980;2023-07-13T07:12:04;5.67;;;2.80;;
14143;SDS011;7152;48.348;10.980;2023-07-13T07:14:31;3.57;;;2.40;;
14143;SDS011;7152;48.348;10.980;2023-07-13T07:16:57;2.77;;;2.43;;
14143;SDS011;7152;48.348;10.980;2023-07-13T07:19:24;4.67;;;2.57;;
14143;SDS011;7152;48.348;10.980;2023-07-13T07:21:49;4.37;;;2.60;;
14143;SDS011;7152;48.348;10.980;2023-07-13T07:24:15;5.77;;;2.70;;
14143;SDS011;7152;48.348;10.980;2023-07-13T07:26:41;4.17;;;2.70;;
14143;SDS011;7152;48.348;10.980;2023-07-13T07:29:07;2.97;;;2.30;;
14143;SDS011;7152;48.348;10.980;2023-07-13T07:31:33;6.13;;;2.77;;
14143;SDS011;7152;48.348;10.980;2023-07-13T07:33:59;6.50;;;2.63;;
14143;SDS011;7152;48.348;10.980;2023-07-13T07:36:25;2.10;;;1.90;;
14143;SDS011;7152;48.348;10.980;2023-07-13T07:38:51;3.63;;;2.30;;
14143;SDS011;7152;48.348;10.980;2023-07-13T07:41:17;5.40;;;2.37;;
14143;SDS011;7152;48.348;10.980;2023-07-13T07:43:43;4.23;;;2.37;;
14143;SDS011;7152;48.348;10.980;2023-07-13T07:46:09;2.40;;;2.20;;
14143;SDS011;7152;48.348;10.980;2023-07-13T07:48:35;2.03;;;1.83;;
14143;SDS011;7152;48.348;10.980;2023-07-13T07:51:00;2.23;;;1.90;;
14143;SDS011;7152;48.348;10.980;2023-07-13T07:53:26;3.13;;;1.80;;
14143;SDS011;7152;48.348;10.980;2023-07-13T07:55:52;4.20;;;2.07;;
14143;SDS011;7152;48.348;10.980;2023-07-13T07:58:18;5.30;;;2.17;;
14143;SDS011;7152;48.348;10.980;2023-07-13T08:00:44;4.83;;;1.90;;
14143;SDS011;7152;48.348;10.980;2023-07-13T08:03:09;2.10;;;1.77;;
14143;SDS011;7152;48.348;10.980;2023-07-13T08:05:36;3.87;;;2.10;;
14143;SDS011;7152;48.348;10.980;2023-07-13T08:08:02;6.57;;;2.33;;
14143;SDS011;7152;48.348;10.980;2023-07-13T08:10:28;6.67;;;2.30;;
14143;SDS011;7152;48.348;10.980;2023-07-13T08:12:54;3.07;;;1.53;;
14143;SDS011;7152;48.348;10.980;2023-07-13T08:15:20;3.40;;;1.70;;
14143;SDS011;7152;48.348;10.980;2023-07-13T08:17:48;2.13;;;1.77;;
14143;SDS011;7152;48.348;10.980;2023-07-13T08:20:14;2.47;;;1.97;;
14143;SDS011;7152;48.348;10.980;2023-07-13T08:22:41;2.57;;;2.00;;
14143;SDS011;7152;48.348;10.980;2023-07-13T08:25:07;3.03;;;1.90;;
14143;SDS011;7152;48.348;10.980;2023-07-13T08:27:33;2.23;;;1.60;;
14143;SDS011;7152;48.348;10.980;2023-07-13T08:29:59;1.97;;;1.70;;
14143;SDS011;7152;48.348;10.980;2023-07-13T08:32:24;3.83;;;1.73;;
14143;SDS011;7152;48.348;10.980;2023-07-13T08:34:50;4.70;;;2.03;;
14143;SDS011;7152;48.348;10.980;2023-07-13T08:37:17;4.60;;;2.00;;
14143;SDS011;7152;48.348;10.980;2023-07-13T08:39:43;9.03;;;2.57;;
14143;SDS011;7152;48.348;10.980;2023-07-13T08:47:24;3.40;;;1.70;;
14143;SDS011;7152;48.348;10.980;2023-07-13T08:49:51;3.60;;;1.50;;
14143;SDS011;7152;48.348;10.980;2023-07-13T08:55:26;1.70;;;1.40;;
14143;SDS011;7152;48.348;10.980;2023-07-13T08:58:03;3.43;;;2.07;;
14143;SDS011;7152;48.348;10.980;2023-07-13T09:01:23;5.20;;;1.73;;
14143;SDS011;7152;48.348;10.980;2023-07-13T09:03:30;3.50;;;1.47;;
14143;SDS011;7152;48.348;10.980;2023-07-13T09:06:06;1.97;;;1.40;;
14143;SDS011;7152;48.348;10.980;2023-07-13T09:16:53;3.03;;;1.80;;
14143;SDS011;7152;48.348;10.980;2023-07-13T09:19:21;2.13;;;1.43;;
14143;SDS011;7152;48.348;10.980;2023-07-13T09:21:54;1.67;;;1.40;;
14143;SDS011;7152;48.348;10.980;2023-07-13T09:27:01;3.23;;;1.30;;
14143;SDS011;7152;48.348;10.980;2023-07-13T09:29:38;2.20;;;1.30;;
14143;SDS011;7152;48.348;10.980;2023-07-13T09:32:09;3.73;;;1.40;;
14143;SDS011;7152;48.348;10.980;2023-07-13T09:34:38;2.40;;;1.50;;
14143;SDS011;7152;48.348;10.980;2023-07-13T09:37:04;1.85;;;1.08;;
14143;SDS011;7152;48.348;10.980;2023-07-13T09:39:35;2.30;;;1.30;;
14143;SDS011;7152;48.348;10.980;2023-07-13T09:42:12;2.30;;;1.30;;
14143;SDS011;7152;48.348;10.980;2023-07-13T09:44:51;2.63;;;1.23;;
14143;SDS011;7152;48.348;10.980;2023-07-13T09:50:27;1.08;;;0.93;;
14143;SDS011;7152;48.348;10.980;2023-07-13T09:52:48;3.03;;;1.50;;
14143;SDS011;7152;48.348;10.980;2023-07-13T09:55:36;2.95;;;1.40;;
14143;SDS011;7152;48.348;10.980;2023-07-13T10:00:40;2.60;;;1.33;;
14143;SDS011;7152;48.348;10.980;2023-07-13T10:05:52;2.20;;;1.33;;
14143;SDS011;7152;48.348;10.980;2023-07-13T10:08:29;3.72;;;1.40;;
14143;SDS011;7152;48.348;10.980;2023-07-13T10:11:02;4.75;;;2.00;;
14143;SDS011;7152;48.348;10.980;2023-07-13T10:13:37;3.30;;;1.17;;
14143;SDS011;7152;48.348;10.980;2023-07-13T10:16:08;2.25;;;1.05;;
14143;SDS011;7152;48.348;10.980;2023-07-13T10:21:13;1.65;;;1.30;;
14143;SDS011;7152;48.348;10.980;2023-07-13T10:23:45;4.78;;;1.20;;
14143;SDS011;7152;48.348;10.980;2023-07-13T10:26:25;2.92;;;1.00;;
14143;SDS011;7152;48.348;10.980;2023-07-13T10:28:56;2.20;;;1.10;;
14143;SDS011;7152;48.348;10.980;2023-07-13T10:31:26;2.42;;;1.42;;
14143;SDS011;7152;48.348;10.980;2023-07-13T10:33:52;3.22;;;1.73;;
14143;SDS011;7152;48.348;10.980;2023-07-13T10:36:29;1.87;;;1.33;;
14143;SDS011;7152;48.348;10.980;2023-07-13T10:39:02;5.20;;;1.30;;
14143;SDS011;7152;48.348;10.980;2023-07-13T10:41:30;2.72;;;1.40;;
14143;SDS011;7152;48.348;10.980;2023-07-13T10:44:01;3.97;;;1.52;;
14143;SDS011;7152;48.348;10.980;2023-07-13T10:46:29;4.43;;;1.58;;
14143;SDS011;7152;48.348;10.980;2023-07-13T10:48:59;4.15;;;1.35;;
14143;SDS011;7152;48.348;10.980;2023-07-13T10:51:27;3.55;;;1.40;;
14143;SDS011;7152;48.348;10.980;2023-07-13T10:56:36;4.65;;;1.23;;
14143;SDS011;7152;48.348;10.980;2023-07-13T11:01:53;2.15;;;1.20;;
14143;SDS011;7152;48.348;10.980;2023-07-13T11:04:25;1.98;;;1.50;;
14143;SDS011;7152;48.348;10.980;2023-07-13T11:06:58;2.55;;;1.38;;
14143;SDS011;7152;48.348;10.980;2023-07-13T11:12:09;2.13;;;1.23;;
14143;SDS011;7152;48.348;10.980;2023-07-13T11:22:41;1.50;;;1.13;;
14143;SDS011;7152;48.348;10.980;2023-07-13T11:27:52;2.35;;;1.45;;
14143;SDS011;7152;48.348;10.980;2023-07-13T11:36:17;2.30;;;1.42;;
14143;SDS011;7152;48.348;10.980;2023-07-13T11:39:01;1.95;;;1.30;;
14143;SDS011;7152;48.348;10.980;2023-07-13T11:41:43;2.33;;;1.10;;
14143;SDS011;7152;48.348;10.980;2023-07-13T11:44:16;3.25;;;1.20;;
14143;SDS011;7152;48.348;10.980;2023-07-13T11:46:48;1.92;;;1.00;;
14143;SDS011;7152;48.348;10.980;2023-07-13T11:49:19;4.65;;;1.40;;
14143;SDS011;7152;48.348;10.980;2023-07-13T11:51:47;1.90;;;1.25;;
14143;SDS011;7152;48.348;10.980;2023-07-13T11:54:29;3.60;;;1.30;;
14143;SDS011;7152;48.348;10.980;2023-07-13T11:57:03;2.20;;;1.10;;
14143;SDS011;7152;48.348;10.980;2023-07-13T11:59:42;3.60;;;1.50;;
14143;SDS011;7152;48.348;10.980;2023-07-13T12:02:13;1.85;;;1.00;;
14143;SDS011;7152;48.348;10.980;2023-07-13T12:04:43;2.67;;;1.30;;
14143;SDS011;7152;48.348;10.980;2023-07-13T12:07:16;2.00;;;1.20;;
14143;SDS011;7152;48.348;10.980;2023-07-13T12:09:43;1.80;;;1.30;;
14143;SDS011;7152;48.348;10.980;2023-07-13T12:12:14;2.47;;;1.20;;
14143;SDS011;7152;48.348;10.980;2023-07-13T12:14:44;2.38;;;1.30;;
14143;SDS011;7152;48.348;10.980;2023-07-13T12:17:16;2.13;;;1.23;;
14143;SDS011;7152;48.348;10.980;2023-07-13T12:19:45;4.18;;;1.30;;
14143;SDS011;7152;48.348;10.980;2023-07-13T12:22:12;2.15;;;1.27;;
14143;SDS011;7152;48.348;10.980;2023-07-13T12:24:41;3.92;;;1.40;;
14143;SDS011;7152;48.348;10.980;2023-07-13T12:27:25;2.05;;;1.60;;
14143;SDS011;7152;48.348;10.980;2023-07-13T12:29:57;4.38;;;1.77;;
14143;SDS011;7152;48.348;10.980;2023-07-13T12:32:25;2.65;;;1.50;;
14143;SDS011;7152;48.348;10.980;2023-07-13T12:34:56;2.28;;;1.13;;
14143;SDS011;7152;48.348;10.980;2023-07-13T12:37:23;2.92;;;1.15;;
14143;SDS011;7152;48.348;10.980;2023-07-13T12:39:49;1.92;;;1.30;;
14143;SDS011;7152;48.348;10.980;2023-07-13T12:47:23;2.00;;;0.90;;
14143;SDS011;7152;48.348;10.980;2023-07-13T12:49:52;1.73;;;1.00;;
14143;SDS011;7152;48.348;10.980;2023-07-13T12:52:21;2.00;;;1.13;;
14143;SDS011;7152;48.348;10.980;2023-07-13T12:55:06;2.53;;;1.00;;
14143;SDS011;7152;48.348;10.980;2023-07-13T13:02:58;3.63;;;1.08;;
14143;SDS011;7152;48.348;10.980;2023-07-13T13:05:29;3.25;;;1.40;;
14143;SDS011;7152;48.348;10.980;2023-07-13T13:07:57;2.22;;;1.40;;
14143;SDS011;7152;48.348;10.980;2023-07-13T13:10:23;2.13;;;1.30;;
14143;SDS011;7152;48.348;10.980;2023-07-13T13:12:50;2.42;;;1.10;;
14143;SDS011;7152;48.348;10.980;2023-07-13T13:15:16;2.55;;;1.33;;
14143;SDS011;7152;48.348;10.980;2023-07-13T13:17:42;2.22;;;0.93;;
14143;SDS011;7152;48.348;10.980;2023-07-13T13:20:21;1.70;;;1.00;;
14143;SDS011;7152;48.348;10.980;2023-07-13T13:22:47;2.47;;;1.10;;
14143;SDS011;7152;48.348;10.980;2023-07-13T13:25:13;3.42;;;1.13;;
14143;SDS011;7152;48.348;10.980;2023-07-13T13:27:41;2.13;;;1.10;;
14143;SDS011;7152;48.348;10.980;2023-07-13T13:30:11;2.63;;;1.20;;
14143;SDS011;7152;48.348;10.980;2023-07-13T13:32:39;2.90;;;1.27;;
14143;SDS011;7152;48.348;10.980;2023-07-13T13:35:05;2.70;;;1.00;;
14143;SDS011;7152;48.348;10.980;2023-07-13T13:37:37;2.28;;;1.42;;
14143;SDS011;7152;48.348;10.980;2023-07-13T13:40:05;3.20;;;1.40;;
14143;SDS011;7152;48.348;10.980;2023-07-13T13:42:46;1.98;;;1.23;;
14143;SDS011;7152;48.348;10.980;2023-07-13T13:45:12;2.00;;;1.08;;
14143;SDS011;7152;48.348;10.980;2023-07-13T13:47:39;1.83;;;0.98;;
14143;SDS011;7152;48.348;10.980;2023-07-13T13:52:40;3.50;;;1.38;;
14143;SDS011;7152;48.348;10.980;2023-07-13T13:55:13;1.55;;;1.10;;
14143;SDS011;7152;48.348;10.980;2023-07-13T13:57:40;4.15;;;1.33;;
14143;SDS011;7152;48.348;10.980;2023-07-13T14:00:10;2.20;;;1.17;;
14143;SDS011;7152;48.348;10.980;2023-07-13T14:02:40;2.17;;;1.05;;
14143;SDS011;7152;48.348;10.980;2023-07-13T14:05:12;2.58;;;1.42;;
14143;SDS011;7152;48.348;10.980;2023-07-13T14:07:40;2.63;;;1.10;;
14143;SDS011;7152;48.348;10.980;2023-07-13T14:10:10;1.77;;;1.13;;
14143;SDS011;7152;48.348;10.980;2023-07-13T14:12:40;2.00;;;1.00;;
14143;SDS011;7152;48.348;10.980;2023-07-13T14:15:17;1.48;;;1.00;;
14143;SDS011;7152;48.348;10.980;2023-07-13T14:17:46;1.63;;;1.20;;
14143;SDS011;7152;48.348;10.980;2023-07-13T14:20:15;2.75;;;1.20;;
14143;SDS011;7152;48.348;10.980;2023-07-13T14:22:42;2.67;;;0.98;;
14143;SDS011;7152;48.348;10.980;2023-07-13T14:25:12;2.53;;;1.38;;
14143;SDS011;7152;48.348;10.980;2023-07-13T14:27:40;3.55;;;1.20;;
14143;SDS011;7152;48.348;10.980;2023-07-13T14:30:13;0.90;;;0.90;;
14143;SDS011;7152;48.348;10.980;2023-07-13T14:32:40;2.03;;;1.00;;
14143;SDS011;7152;48.348;10.980;2023-07-13T14:35:13;2.47;;;1.08;;
14143;SDS011;7152;48.348;10.980;2023-07-13T14:37:40;3.22;;;1.20;;
14143;SDS011;7152;48.348;10.980;2023-07-13T14:40:17;3.03;;;1.13;;
14143;SDS011;7152;48.348;10.980;2023-07-13T14:42:49;2.30;;;1.30;;
14143;SDS011;7152;48.348;10.980;2023-07-13T14:45:17;1.73;;;1.17;;
14143;SDS011;7152;48.348;10.980;2023-07-13T14:47:45;1.85;;;1.00;;
14143;SDS011;7152;48.348;10.980;2023-07-13T14:50:16;1.70;;;1.00;;
14143;SDS011;7152;48.348;10.980;2023-07-13T14:52:44;1.70;;;1.23;;
14143;SDS011;7152;48.348;10.980;2023-07-13T14:55:14;11.02;;;1.45;;
14143;SDS011;7152;48.348;10.980;2023-07-13T14:57:42;2.42;;;1.05;;
14143;SDS011;7152;48.348;10.980;2023-07-13T15:00:15;2.95;;;1.40;;
14143;SDS011;7152;48.348;10.980;2023-07-13T15:02:44;2.97;;;1.10;;
14143;SDS011;7152;48.348;10.980;2023-07-13T15:05:18;2.70;;;1.08;;
14143;SDS011;7152;48.348;10.980;2023-07-13T15:07:46;2.75;;;1.10;;
14143;SDS011;7152;48.348;10.980;2023-07-13T15:12:46;3.22;;;1.23;;
14143;SDS011;7152;48.348;10.980;2023-07-13T15:15:13;1.92;;;1.27;;
14143;SDS011;7152;48.348;10.980;2023-07-13T15:17:40;3.50;;;1.13;;
14143;SDS011;7152;48.348;10.980;2023-07-13T15:20:23;2.80;;;1.30;;
14143;SDS011;7152;48.348;10.980;2023-07-13T15:22:55;1.58;;;0.90;;
14143;SDS011;7152;48.348;10.980;2023-07-13T15:25:25;1.52;;;0.98;;
14143;SDS011;7152;48.348;10.980;2023-07-13T15:27:52;2.22;;;0.90;;
14143;SDS011;7152;48.348;10.980;2023-07-13T15:30:20;2.25;;;1.00;;
14143;SDS011;7152;48.348;10.980;2023-07-13T15:32:47;2.45;;;0.77;;
14143;SDS011;7152;48.348;10.980;2023-07-13T15:35:18;1.27;;;1.00;;
14143;SDS011;7152;48.348;10.980;2023-07-13T15:37:48;1.40;;;1.05;;
14143;SDS011;7152;48.348;10.980;2023-07-13T15:40:15;2.45;;;0.90;;
14143;SDS011;7152;48.348;10.980;2023-07-13T15:42:41;1.83;;;1.33;;
14143;SDS011;7152;48.348;10.980;2023-07-13T15:45:19;2.80;;;0.93;;
14143;SDS011;7152;48.348;10.980;2023-07-13T15:47:47;2.50;;;1.20;;
14143;SDS011;7152;48.348;10.980;2023-07-13T15:50:18;2.35;;;1.00;;
14143;SDS011;7152;48.348;10.980;2023-07-13T15:52:48;2.22;;;1.08;;
14143;SDS011;7152;48.348;10.980;2023-07-13T15:55:16;1.77;;;0.90;;
14143;SDS011;7152;48.348;10.980;2023-07-13T15:57:44;1.67;;;1.10;;